Terminal Aerodrome Forecast
Issued by NWS

Current Version | Previous Version | Text Only | Print | Product List | Glossary On
Versions: 1 2 3 4 5 6 7 8 9 10 11 12 13 14 15 16 17
000
FTUS43 KMPX 261100
TAFRNH
TAF
KRNH 261125Z 2612/2712 01007KT 4SM BR OVC007
     FM261800 35007KT P6SM OVC015
     FM270400 35008KT 4SM -SN BR OVC012
     FM270500 35008KT 2SM -SN BR SCT007 OVC011=

USA.gov is the U.S. government's official web portal to all federal, state and local government web resources and services.